Time;durP1;ratioP1;P1;durP2;ratioP2;P2;SDS_P1;SDS_P2;PMS_P1;PMS_P2;Temp;Humidity;BMP_temperature;BMP_pressure;BME280_temperature;BME280_humidity;BME280_pressure;Samples;Min_cycle;Max_cycle;Signal;HPM_P1;HPM_P2
2023/05/14 00:00:30;;;;;;;9.65;6.65;;;18.30;58.10;;;;;;5066994;28;20028;-66
2023/05/14 00:02:56;;;;;;;9.50;7.32;;;18.30;58.20;;;;;;5066113;28;20036;-66
2023/05/14 00:05:21;;;;;;;13.27;7.30;;;18.20;58.20;;;;;;5065997;28;20029;-66
2023/05/14 00:07:47;;;;;;;11.73;7.47;;;18.30;58.30;;;;;;5066311;28;20016;-66
2023/05/14 00:10:13;;;;;;;11.18;7.63;;;18.20;58.30;;;;;;5074668;28;20097;-66
2023/05/14 00:12:39;;;;;;;13.98;8.27;;;18.10;58.30;;;;;;5061576;28;20413;-66
2023/05/14 00:15:05;;;;;;;10.88;7.25;;;18.10;58.40;;;;;;5054024;28;20366;-66
2023/05/14 00:17:31;;;;;;;13.60;8.00;;;18.10;58.50;;;;;;5063915;28;20051;-66
2023/05/14 00:19:58;;;;;;;12.13;8.27;;;18.00;58.50;;;;;;5073487;28;20025;-66
2023/05/14 00:22:24;;;;;;;11.90;8.23;;;18.00;58.60;;;;;;5075503;28;20028;-66
2023/05/14 00:24:49;;;;;;;11.52;7.82;;;18.00;59.40;;;;;;5070414;28;20102;-66
2023/05/14 00:27:15;;;;;;;11.20;8.38;;;18.00;58.90;;;;;;5059757;28;20128;-66
2023/05/14 00:29:41;;;;;;;12.15;8.20;;;17.90;58.90;;;;;;5071901;28;20027;-66
2023/05/14 00:32:07;;;;;;;12.52;7.95;;;17.90;59.00;;;;;;5071340;28;20017;-66
2023/05/14 00:34:33;;;;;;;9.68;7.65;;;17.80;58.90;;;;;;5071758;28;20357;-66
2023/05/14 00:36:59;;;;;;;12.30;8.23;;;17.80;59.00;;;;;;5072317;28;20025;-66
2023/05/14 00:39:25;;;;;;;12.77;8.43;;;17.80;59.10;;;;;;5060028;28;20084;-66
2023/05/14 00:41:50;;;;;;;12.70;8.23;;;17.70;59.10;;;;;;5072728;28;20043;-66
2023/05/14 00:44:16;;;;;;;13.88;8.48;;;17.70;59.20;;;;;;5073993;28;20101;-66
2023/05/14 00:46:42;;;;;;;12.30;8.70;;;17.70;59.30;;;;;;5072781;28;20404;-66
2023/05/14 00:49:08;;;;;;;13.00;8.15;;;17.70;59.30;;;;;;5066356;28;20028;-66
2023/05/14 00:51:34;;;;;;;11.43;8.02;;;17.60;59.40;;;;;;5074927;28;20059;-66
2023/05/14 00:54:00;;;;;;;11.75;8.25;;;17.60;59.60;;;;;;5069810;28;20025;-66
2023/05/14 00:56:27;;;;;;;11.02;8.60;;;17.60;59.70;;;;;;5069275;28;20035;-66
2023/05/14 00:58:52;;;;;;;13.48;8.52;;;17.60;59.70;;;;;;5070023;28;20029;-66
2023/05/14 01:01:18;;;;;;;14.38;8.38;;;17.50;59.70;;;;;;5072373;28;20039;-66
2023/05/14 01:03:44;;;;;;;10.85;8.10;;;17.50;59.70;;;;;;5070246;28;20046;-66
2023/05/14 01:06:20;;;;;;;12.50;8.32;;;17.50;59.80;;;;;;5060021;28;20032;-66
2023/05/14 01:09:02;;;;;;;13.13;8.20;;;17.50;59.90;;;;;;5061597;28;20039;-66
2023/05/14 01:11:30;;;;;;;11.38;8.00;;;17.40;59.90;;;;;;5073879;28;20052;-66
2023/05/14 01:14:08;;;;;;;11.35;8.05;;;17.50;60.10;;;;;;5069152;28;20036;-66
2023/05/14 01:16:37;;;;;;;11.98;7.90;;;17.40;60.20;;;;;;5070998;28;20580;-66
2023/05/14 01:19:06;;;;;;;10.93;8.10;;;17.40;60.30;;;;;;5072872;28;20379;-66
2023/05/14 01:21:39;;;;;;;13.00;7.88;;;17.40;60.40;;;;;;5067141;28;20024;-66
2023/05/14 01:24:06;;;;;;;10.68;7.82;;;17.40;60.40;;;;;;5065083;28;20035;-66
2023/05/14 01:26:33;;;;;;;10.95;7.70;;;17.40;60.40;;;;;;5069610;28;20048;-66
2023/05/14 01:29:19;;;;;;;15.52;8.93;;;17.40;60.40;;;;;;5069677;28;20032;-66
2023/05/14 01:31:47;;;;;;;13.20;8.80;;;17.40;60.50;;;;;;5064822;28;20037;-66
2023/05/14 01:34:14;;;;;;;12.82;8.80;;;17.30;60.60;;;;;;5070280;28;20438;-66
2023/05/14 01:36:41;;;;;;;13.10;8.85;;;17.30;60.70;;;;;;5072940;28;20020;-66
2023/05/14 01:39:09;;;;;;;13.60;8.73;;;17.30;60.70;;;;;;5060571;28;20032;-66
2023/05/14 01:41:38;;;;;;;12.65;9.20;;;17.30;60.70;;;;;;5069364;28;20029;-66
2023/05/14 01:44:04;;;;;;;11.60;8.90;;;17.30;60.80;;;;;;5064582;28;20029;-65
2023/05/14 01:46:32;;;;;;;12.40;8.90;;;17.20;60.80;;;;;;5072548;28;20032;-65
2023/05/14 01:48:59;;;;;;;15.15;8.98;;;17.20;60.90;;;;;;5063294;28;20025;-66
2023/05/14 01:51:25;;;;;;;14.63;8.20;;;17.20;60.90;;;;;;5072195;28;20028;-65
2023/05/14 01:53:51;;;;;;;11.85;8.27;;;17.20;61.10;;;;;;5072459;28;20028;-66
2023/05/14 01:56:20;;;;;;;13.63;9.05;;;17.10;61.20;;;;;;5072188;28;20040;-65
2023/05/14 01:58:46;;;;;;;11.82;8.80;;;17.10;61.30;;;;;;5056267;28;20024;-66
2023/05/14 02:01:12;;;;;;;14.10;9.55;;;17.10;61.50;;;;;;5071440;28;20480;-65
2023/05/14 02:03:38;;;;;;;11.05;8.60;;;17.00;61.50;;;;;;5053328;28;20124;-66
2023/05/14 02:06:03;;;;;;;12.35;9.05;;;17.00;61.70;;;;;;5067241;28;20036;-66
2023/05/14 02:08:29;;;;;;;12.98;8.75;;;17.00;61.90;;;;;;5073413;28;20032;-66
2023/05/14 02:10:55;;;;;;;15.82;9.73;;;16.90;61.90;;;;;;5070874;28;20031;-66
2023/05/14 02:13:24;;;;;;;14.75;9.38;;;16.90;62.10;;;;;;5073263;28;20032;-66
2023/05/14 02:15:50;;;;;;;13.90;9.15;;;16.90;62.10;;;;;;5063455;28;20369;-66
2023/05/14 02:18:16;;;;;;;12.95;9.23;;;16.80;62.20;;;;;;5060846;28;20024;-66
2023/05/14 02:20:42;;;;;;;11.38;8.55;;;16.80;62.30;;;;;;5070073;28;20492;-66
2023/05/14 02:23:08;;;;;;;14.07;8.95;;;16.80;62.40;;;;;;5072732;28;20029;-66
2023/05/14 02:25:34;;;;;;;11.82;9.15;;;16.80;62.50;;;;;;5071153;28;20090;-66
2023/05/14 02:28:00;;;;;;;12.75;9.55;;;16.80;62.60;;;;;;5071316;28;20052;-66
2023/05/14 02:30:25;;;;;;;13.98;9.43;;;16.70;62.70;;;;;;5068198;28;20071;-65
2023/05/14 02:32:51;;;;;;;13.93;9.25;;;16.70;62.80;;;;;;5061564;28;20025;-66
2023/05/14 02:35:17;;;;;;;12.60;9.35;;;16.70;63.00;;;;;;5066036;28;20029;-65
2023/05/14 02:37:43;;;;;;;15.23;10.18;;;16.60;63.00;;;;;;5053499;28;20036;-66
2023/05/14 02:40:09;;;;;;;13.57;9.20;;;16.60;63.10;;;;;;5070706;28;20030;-66
2023/05/14 02:42:35;;;;;;;14.38;9.13;;;16.60;63.30;;;;;;5066954;28;20044;-65
2023/05/14 02:45:00;;;;;;;13.15;10.30;;;16.50;63.40;;;;;;5069153;28;20025;-66
2023/05/14 02:47:26;;;;;;;13.15;9.32;;;16.50;63.60;;;;;;5067313;28;20024;-66
2023/05/14 02:49:52;;;;;;;15.60;9.23;;;16.50;63.80;;;;;;5051476;28;20017;-66
2023/05/14 02:52:18;;;;;;;14.13;10.48;;;16.40;63.80;;;;;;5060521;28;20029;-65
2023/05/14 02:54:43;;;;;;;13.15;9.50;;;16.50;64.10;;;;;;5054782;28;20025;-65
2023/05/14 02:57:09;;;;;;;14.98;9.98;;;16.40;64.10;;;;;;5065377;28;20528;-65
2023/05/14 02:59:35;;;;;;;13.20;10.18;;;16.40;64.20;;;;;;5070847;28;20017;-65
2023/05/14 03:02:01;;;;;;;14.20;10.27;;;16.40;64.20;;;;;;5062888;28;20037;-65
2023/05/14 03:04:27;;;;;;;12.60;9.63;;;16.30;64.20;;;;;;5073433;28;20032;-65
2023/05/14 03:06:52;;;;;;;13.10;9.38;;;16.30;64.20;;;;;;5068510;28;20012;-66
2023/05/14 03:09:18;;;;;;;14.50;9.88;;;16.30;64.30;;;;;;5062631;28;20021;-66
2023/05/14 03:11:44;;;;;;;13.05;9.80;;;16.20;64.30;;;;;;5067634;28;20108;-65
2023/05/14 03:14:10;;;;;;;15.55;10.35;;;16.20;64.50;;;;;;5070020;28;20029;-66
2023/05/14 03:16:36;;;;;;;12.77;9.70;;;16.20;64.50;;;;;;5070080;28;20052;-66
2023/05/14 03:19:02;;;;;;;13.80;10.80;;;16.20;64.60;;;;;;5061792;28;20039;-66
2023/05/14 03:21:28;;;;;;;13.73;10.15;;;16.10;64.70;;;;;;5070260;28;20426;-65
2023/05/14 03:23:54;;;;;;;15.40;10.35;;;16.10;64.70;;;;;;5069727;28;20025;-65
2023/05/14 03:26:20;;;;;;;16.95;10.93;;;16.10;64.80;;;;;;5050571;28;20115;-66
2023/05/14 03:28:46;;;;;;;15.32;10.30;;;16.10;64.90;;;;;;5072346;28;20029;-66
2023/05/14 03:31:11;;;;;;;13.77;10.40;;;16.00;64.90;;;;;;5068852;28;20050;-66
2023/05/14 03:33:37;;;;;;;16.23;10.63;;;16.00;65.00;;;;;;5066796;28;20025;-66
2023/05/14 03:36:04;;;;;;;13.88;10.20;;;16.00;65.10;;;;;;5071011;28;20032;-66
2023/05/14 03:38:30;;;;;;;14.52;10.25;;;16.00;65.20;;;;;;5070935;28;20021;-66
2023/05/14 03:40:56;;;;;;;14.80;9.80;;;15.90;65.30;;;;;;5071266;28;20475;-66
2023/05/14 03:43:22;;;;;;;13.40;9.90;;;15.90;65.30;;;;;;5078869;28;20016;-66
2023/05/14 03:45:51;;;;;;;14.18;10.57;;;15.90;65.50;;;;;;5071919;28;20364;-65
2023/05/14 03:48:18;;;;;;;13.95;10.38;;;15.90;65.50;;;;;;5056753;28;20335;-65
2023/05/14 03:50:44;;;;;;;15.15;10.90;;;15.90;65.70;;;;;;5073171;28;20090;-65
2023/05/14 03:53:10;;;;;;;13.73;10.40;;;15.80;65.70;;;;;;5074073;28;20165;-65
2023/05/14 03:55:36;;;;;;;13.88;10.90;;;15.80;65.80;;;;;;5056185;28;20059;-65
2023/05/14 03:58:02;;;;;;;15.38;11.07;;;15.80;65.90;;;;;;5069922;28;20037;-65
2023/05/14 04:00:28;;;;;;;15.13;11.52;;;15.70;65.90;;;;;;5052130;28;20048;-65
2023/05/14 04:02:54;;;;;;;15.48;10.95;;;15.70;66.10;;;;;;5068053;28;20438;-65
2023/05/14 04:05:22;;;;;;;14.05;10.73;;;15.70;66.20;;;;;;5076267;28;20526;-65
2023/05/14 04:07:48;;;;;;;15.05;11.07;;;15.70;66.20;;;;;;5055159;28;20028;-66
2023/05/14 04:10:14;;;;;;;16.70;10.63;;;15.70;66.20;;;;;;5070972;28;20013;-65
2023/05/14 04:12:40;;;;;;;14.25;10.38;;;15.70;66.30;;;;;;5070225;28;20079;-65
2023/05/14 04:15:07;;;;;;;16.15;11.75;;;15.70;66.40;;;;;;5052311;28;20317;-65
2023/05/14 04:17:33;;;;;;;15.02;11.00;;;15.60;66.50;;;;;;5073552;28;20043;-66
2023/05/14 04:19:59;;;;;;;16.15;11.85;;;15.60;66.50;;;;;;5053027;28;20024;-66
2023/05/14 04:22:24;;;;;;;14.50;10.73;;;15.60;66.60;;;;;;5071321;28;20029;-66
2023/05/14 04:24:50;;;;;;;17.15;11.85;;;15.60;66.70;;;;;;5067789;28;20053;-65
2023/05/14 04:27:20;;;;;;;17.35;10.60;;;15.60;66.70;;;;;;5071896;28;20488;-66
2023/05/14 04:29:46;;;;;;;14.10;10.63;;;15.60;66.70;;;;;;5065190;28;20028;-66
2023/05/14 04:32:12;;;;;;;15.90;11.45;;;15.60;66.70;;;;;;5056004;28;20357;-66
2023/05/14 04:34:38;;;;;;;14.27;11.00;;;15.60;66.70;;;;;;5057572;28;20044;-66
2023/05/14 04:37:04;;;;;;;15.05;10.68;;;15.60;66.70;;;;;;5057578;28;20076;-66
2023/05/14 04:39:30;;;;;;;14.05;9.80;;;15.70;66.80;;;;;;5041023;28;20037;-66
2023/05/14 04:41:56;;;;;;;15.57;10.48;;;15.70;66.70;;;;;;5055734;28;20041;-66
2023/05/14 04:44:23;;;;;;;15.93;10.73;;;15.70;66.70;;;;;;5057531;28;20081;-66
2023/05/14 04:46:48;;;;;;;15.45;10.70;;;15.70;66.70;;;;;;5072654;28;20024;-66
2023/05/14 04:49:14;;;;;;;17.05;10.68;;;15.70;66.80;;;;;;5066443;28;20311;-66
2023/05/14 04:51:40;;;;;;;16.50;11.30;;;15.70;66.70;;;;;;5072515;28;20024;-66
2023/05/14 04:54:05;;;;;;;13.73;10.10;;;15.80;66.90;;;;;;5063817;28;20364;-66
2023/05/14 04:56:31;;;;;;;12.95;9.30;;;15.80;66.90;;;;;;5063907;28;20036;-66
2023/05/14 04:58:57;;;;;;;14.82;10.93;;;15.80;66.70;;;;;;5068668;28;20027;-66
2023/05/14 05:01:23;;;;;;;15.48;10.15;;;15.90;66.70;;;;;;5072897;28;20095;-66
2023/05/14 05:03:48;;;;;;;15.85;10.70;;;15.90;66.60;;;;;;5065838;28;20111;-65
2023/05/14 05:06:14;;;;;;;14.30;10.00;;;15.90;66.50;;;;;;5068594;28;20033;-66
2023/05/14 05:08:40;;;;;;;16.20;10.88;;;16.00;66.50;;;;;;5071691;28;20025;-66
2023/05/14 05:11:06;;;;;;;15.63;10.48;;;16.00;66.50;;;;;;5070369;28;20111;-64
2023/05/14 05:13:32;;;;;;;15.80;10.50;;;16.00;66.40;;;;;;5071954;28;20437;-64
2023/05/14 05:15:58;;;;;;;17.45;11.02;;;16.10;66.40;;;;;;5065572;28;20041;-65
2023/05/14 05:18:23;;;;;;;16.30;10.50;;;16.20;66.30;;;;;;5066546;28;20103;-66
2023/05/14 05:20:49;;;;;;;15.38;10.73;;;16.30;66.00;;;;;;5071037;28;20086;-66
2023/05/14 05:23:15;;;;;;;15.00;10.40;;;16.50;65.90;;;;;;5077066;28;20063;-66
2023/05/14 05:25:40;;;;;;;14.75;10.57;;;16.60;65.70;;;;;;5069303;28;20043;-66
2023/05/14 05:28:06;;;;;;;14.77;10.80;;;16.60;65.40;;;;;;5057844;28;20024;-67
2023/05/14 05:30:32;;;;;;;14.65;10.43;;;16.70;65.40;;;;;;5067749;28;20051;-66
2023/05/14 05:32:58;;;;;;;14.60;10.40;;;16.70;65.40;;;;;;5055347;28;20032;-66
2023/05/14 05:35:24;;;;;;;13.88;10.38;;;16.70;65.40;;;;;;5062355;28;20040;-66
2023/05/14 05:37:50;;;;;;;14.55;10.20;;;16.70;65.30;;;;;;5073401;28;20480;-66
2023/05/14 05:40:15;;;;;;;16.02;10.30;;;16.70;65.30;;;;;;5059763;28;20033;-66
2023/05/14 05:42:41;;;;;;;15.02;10.07;;;16.80;65.30;;;;;;5057991;28;20120;-67
2023/05/14 05:45:07;;;;;;;17.15;9.75;;;16.80;65.20;;;;;;5054690;28;20469;-67
2023/05/14 05:47:33;;;;;;;14.60;10.25;;;17.00;65.10;;;;;;5070698;28;20111;-67
2023/05/14 05:49:59;;;;;;;13.82;9.90;;;17.10;64.80;;;;;;5086668;28;20113;-66
2023/05/14 05:52:25;;;;;;;13.93;9.90;;;17.20;64.60;;;;;;5073488;28;20013;-67
2023/05/14 05:54:50;;;;;;;12.98;9.48;;;17.30;64.40;;;;;;5062062;28;20362;-67
2023/05/14 05:57:16;;;;;;;13.02;9.95;;;17.50;64.30;;;;;;5071722;28;20043;-67
2023/05/14 05:59:42;;;;;;;13.63;9.15;;;17.50;64.10;;;;;;5067589;28;20456;-67
2023/05/14 06:02:08;;;;;;;14.48;9.50;;;17.70;63.80;;;;;;5046234;28;20074;-67
2023/05/14 06:04:33;;;;;;;13.60;9.40;;;17.80;63.50;;;;;;5072072;28;20021;-66
2023/05/14 06:06:59;;;;;;;13.50;9.18;;;17.90;63.20;;;;;;5072704;28;20040;-67
2023/05/14 06:09:25;;;;;;;14.10;8.65;;;18.00;63.00;;;;;;5070373;28;20067;-67
2023/05/14 06:11:51;;;;;;;11.75;9.15;;;18.20;62.80;;;;;;5072126;28;20055;-67
2023/05/14 06:14:16;;;;;;;12.60;9.30;;;18.30;62.50;;;;;;5073471;28;20089;-66
2023/05/14 06:16:42;;;;;;;12.93;8.70;;;18.40;62.40;;;;;;5061947;28;20036;-66
2023/05/14 06:19:08;;;;;;;14.18;10.27;;;18.50;62.00;;;;;;5040213;28;20458;-66
2023/05/14 06:21:34;;;;;;;14.13;9.63;;;18.50;61.70;;;;;;5064077;28;20040;-67
2023/05/14 06:24:00;;;;;;;14.20;8.70;;;18.70;61.50;;;;;;5066653;28;20085;-67
2023/05/14 06:26:26;;;;;;;12.93;8.73;;;18.80;61.30;;;;;;5062591;28;20449;-66
2023/05/14 06:28:51;;;;;;;11.73;8.80;;;19.00;61.70;;;;;;5067037;28;20024;-67
2023/05/14 06:31:17;;;;;;;15.15;9.07;;;19.10;60.60;;;;;;5071945;28;20020;-67
2023/05/14 06:33:44;;;;;;;13.73;9.25;;;19.30;60.40;;;;;;5064821;28;20062;-67
2023/05/14 06:36:10;;;;;;;13.90;8.38;;;19.40;60.00;;;;;;5072132;28;20039;-67
2023/05/14 06:38:35;;;;;;;11.45;7.35;;;19.60;59.70;;;;;;5068201;28;20356;-66
2023/05/14 06:41:02;;;;;;;13.35;8.68;;;19.70;59.40;;;;;;5064923;28;20036;-66
2023/05/14 06:43:27;;;;;;;14.95;8.48;;;19.80;59.30;;;;;;5061629;28;20028;-65
2023/05/14 06:45:53;;;;;;;11.23;8.00;;;20.00;58.80;;;;;;5066172;28;20434;-65
2023/05/14 06:48:19;;;;;;;12.45;8.25;;;20.10;58.60;;;;;;5065005;28;20012;-67
2023/05/14 06:50:47;;;;;;;12.88;8.52;;;20.20;58.40;;;;;;5063440;28;20457;-65
2023/05/14 06:53:13;;;;;;;10.57;7.45;;;20.40;58.20;;;;;;5057205;28;20343;-64
2023/05/14 06:55:38;;;;;;;11.07;7.72;;;20.60;58.00;;;;;;5064082;28;20036;-67
2023/05/14 06:58:08;;;;;;;11.15;7.38;;;20.70;57.60;;;;;;5067173;28;20028;-66
2023/05/14 07:00:33;;;;;;;11.80;7.82;;;20.80;56.90;;;;;;5062644;28;20136;-66
2023/05/14 07:02:59;;;;;;;10.95;6.82;;;21.00;56.60;;;;;;5065220;28;20031;-66
2023/05/14 07:05:25;;;;;;;11.93;7.50;;;21.20;56.40;;;;;;5064826;28;20472;-66
2023/05/14 07:07:51;;;;;;;13.63;6.78;;;21.30;56.00;;;;;;5067111;28;20027;-66
2023/05/14 07:10:17;;;;;;;10.25;7.15;;;21.40;55.80;;;;;;5064236;28;20365;-67
2023/05/14 07:12:43;;;;;;;12.27;6.53;;;21.50;55.30;;;;;;5063452;28;20025;-66
2023/05/14 07:15:09;;;;;;;13.32;8.10;;;21.60;55.00;;;;;;5067378;28;20025;-70
2023/05/14 07:17:36;;;;;;;10.73;6.70;;;21.50;54.70;;;;;;5065521;28;20112;-72
2023/05/14 07:20:02;;;;;;;10.40;6.75;;;21.60;54.60;;;;;;5069657;28;20044;-78
2023/05/14 07:22:28;;;;;;;11.68;7.55;;;21.70;54.50;;;;;;5068808;28;20028;-69
2023/05/14 07:24:54;;;;;;;11.05;6.85;;;21.80;54.40;;;;;;5064720;28;20150;-70
2023/05/14 07:27:20;;;;;;;11.43;6.57;;;21.80;54.20;;;;;;5069763;28;20025;-71
2023/05/14 07:29:45;;;;;;;9.20;5.53;;;21.70;54.30;;;;;;5063981;28;20029;-71
2023/05/14 07:32:11;;;;;;;10.73;6.22;;;21.70;54.40;;;;;;5070314;28;20036;-70
2023/05/14 07:34:37;;;;;;;9.75;6.28;;;21.80;54.30;;;;;;5066690;28;20020;-70
2023/05/14 07:37:03;;;;;;;8.55;6.00;;;21.90;54.00;;;;;;5067365;28;20017;-70
2023/05/14 07:39:28;;;;;;;11.27;6.00;;;22.10;54.10;;;;;;5068128;28;20376;-69
2023/05/14 07:41:54;;;;;;;9.07;6.00;;;22.20;53.80;;;;;;5064825;28;20137;-70
2023/05/14 07:44:20;;;;;;;11.02;5.70;;;22.50;53.80;;;;;;5065081;28;20497;-70
2023/05/14 07:46:46;;;;;;;8.70;5.90;;;22.70;53.40;;;;;;5066748;28;20434;-72
2023/05/14 07:49:12;;;;;;;11.32;6.10;;;22.80;53.00;;;;;;5067369;28;20032;-72
2023/05/14 07:51:38;;;;;;;8.93;6.00;;;23.10;52.80;;;;;;5072031;28;20032;-71
2023/05/14 07:54:04;;;;;;;11.95;6.10;;;23.20;52.50;;;;;;5067969;28;20048;-70
2023/05/14 07:56:29;;;;;;;8.65;5.57;;;23.30;52.50;;;;;;5066849;28;20162;-69
2023/05/14 07:58:55;;;;;;;8.63;5.72;;;23.40;52.40;;;;;;5068325;28;20099;-69
2023/05/14 08:01:21;;;;;;;10.45;5.90;;;23.40;52.30;;;;;;5070024;28;20028;-70
2023/05/14 08:03:47;;;;;;;9.95;5.18;;;23.50;52.40;;;;;;5068910;28;20029;-63
2023/05/14 08:06:13;;;;;;;8.88;4.97;;;23.60;52.20;;;;;;5069460;28;20017;-63
2023/05/14 08:08:39;;;;;;;10.00;5.63;;;23.70;51.70;;;;;;5072571;28;20083;-63
2023/05/14 08:11:05;;;;;;;7.78;5.10;;;23.80;51.40;;;;;;5069795;28;20025;-63
2023/05/14 08:13:31;;;;;;;7.90;4.55;;;23.90;51.10;;;;;;5070615;28;20104;-63
2023/05/14 08:15:57;;;;;;;9.05;5.00;;;23.80;51.10;;;;;;5072567;28;20032;-63
2023/05/14 08:18:23;;;;;;;7.32;4.50;;;23.90;51.00;;;;;;5071440;28;20032;-63
2023/05/14 08:20:48;;;;;;;10.35;5.43;;;23.90;50.50;;;;;;5070927;28;20044;-63
2023/05/14 08:23:14;;;;;;;7.65;4.80;;;24.00;50.20;;;;;;5068173;28;20478;-63
2023/05/14 08:25:40;;;;;;;7.85;4.55;;;24.10;49.90;;;;;;5074535;28;20531;-63
2023/05/14 08:28:06;;;;;;;7.40;4.57;;;24.10;49.60;;;;;;5073124;28;20029;-63
2023/05/14 08:30:32;;;;;;;7.65;4.20;;;24.10;49.50;;;;;;5065707;28;20145;-63
2023/05/14 08:32:58;;;;;;;6.80;4.22;;;24.00;49.40;;;;;;5078158;28;20058;-63
2023/05/14 08:35:24;;;;;;;9.80;4.60;;;24.00;49.00;;;;;;5069808;28;20446;-63
2023/05/14 08:37:51;;;;;;;7.40;4.28;;;24.00;48.80;;;;;;5074853;28;20145;-63
2023/05/14 08:40:17;;;;;;;10.98;4.50;;;23.90;48.70;;;;;;5058450;28;20476;-63
2023/05/14 08:42:43;;;;;;;6.78;4.00;;;23.60;48.70;;;;;;5058780;28;20035;-63
2023/05/14 08:45:27;;;;;;;8.13;4.45;;;23.40;49.20;;;;;;5057804;28;20033;-63
2023/05/14 08:47:55;;;;;;;7.50;4.05;;;23.30;49.40;;;;;;5064925;28;20438;-63
2023/05/14 08:50:21;;;;;;;6.75;3.75;;;23.30;49.50;;;;;;5068708;28;20033;-63
2023/05/14 08:52:47;;;;;;;8.80;4.10;;;23.30;49.40;;;;;;5068669;28;20025;-63
2023/05/14 08:55:27;;;;;;;7.05;3.83;;;23.30;49.30;;;;;;5060946;28;20392;-63
2023/05/14 08:57:52;;;;;;;7.90;3.80;;;23.60;48.50;;;;;;5050754;28;20039;-63
2023/05/14 09:00:18;;;;;;;6.03;3.42;;;23.70;48.10;;;;;;5062040;28;20159;-63
2023/05/14 09:02:46;;;;;;;7.20;3.25;;;24.00;47.80;;;;;;5064968;28;20024;-63
2023/05/14 09:05:13;;;;;;;6.35;3.42;;;24.40;47.20;;;;;;5056773;28;20025;-63
2023/05/14 09:07:40;;;;;;;7.47;3.83;;;24.60;46.80;;;;;;5059601;28;20024;-63
2023/05/14 09:10:07;;;;;;;6.70;3.33;;;24.80;46.40;;;;;;5063707;28;20028;-63
2023/05/14 09:12:33;;;;;;;7.32;3.28;;;25.00;46.00;;;;;;5066880;28;20446;-63
2023/05/14 09:14:59;;;;;;;8.95;3.75;;;25.20;45.50;;;;;;5067027;28;20099;-63
2023/05/14 09:17:29;;;;;;;6.82;3.40;;;25.30;45.40;;;;;;5062923;28;20058;-63
2023/05/14 09:19:55;;;;;;;6.60;3.58;;;25.30;45.20;;;;;;5060495;28;20048;-62
2023/05/14 09:22:21;;;;;;;7.75;3.33;;;25.40;44.90;;;;;;5063517;28;20057;-63
2023/05/14 09:25:03;;;;;;;10.43;3.13;;;25.60;44.50;;;;;;5059848;28;20415;-63
2023/05/14 09:27:30;;;;;;;5.68;2.92;;;25.80;43.20;;;;;;5039048;28;20021;-63
2023/05/14 09:30:04;;;;;;;7.65;3.40;;;25.90;42.90;;;;;;5064575;28;20108;-63
2023/05/14 09:32:38;;;;;;;6.43;2.72;;;26.10;42.20;;;;;;5065908;28;20028;-63
2023/05/14 09:35:17;;;;;;;6.28;2.75;;;26.30;41.90;;;;;;5065378;28;20033;-63
2023/05/14 09:37:45;;;;;;;7.22;2.90;;;26.40;41.20;;;;;;5066222;28;20090;-63
2023/05/14 09:40:12;;;;;;;6.05;2.55;;;26.50;41.30;;;;;;5064086;28;20036;-65
2023/05/14 09:46:28;;;;;;;5.25;2.53;;;26.60;40.10;;;;;;5055761;28;20055;-63
2023/05/14 09:48:55;;;;;;;6.90;2.70;;;26.60;40.10;;;;;;5069882;28;20026;-63
2023/05/14 09:51:21;;;;;;;5.13;2.55;;;26.60;39.80;;;;;;5070366;28;20067;-64
2023/05/14 09:53:47;;;;;;;6.82;2.67;;;26.60;39.50;;;;;;5055391;28;20058;-64
2023/05/14 09:56:14;;;;;;;5.13;2.78;;;26.60;39.50;;;;;;5067246;28;20112;-63
2023/05/14 09:58:39;;;;;;;6.15;2.58;;;26.60;39.10;;;;;;5052758;28;20028;-64
2023/05/14 10:01:06;;;;;;;6.45;3.08;;;26.70;39.10;;;;;;5068613;28;20025;-63
2023/05/14 10:03:31;;;;;;;6.22;2.90;;;26.80;39.30;;;;;;5074058;28;20032;-63
2023/05/14 10:06:03;;;;;;;5.60;2.72;;;26.90;38.50;;;;;;5065219;28;20044;-64
2023/05/14 10:08:34;;;;;;;5.22;2.67;;;26.90;38.10;;;;;;5065095;28;20428;-64
2023/05/14 10:11:05;;;;;;;4.35;2.20;;;27.00;38.10;;;;;;5072051;28;20063;-63
2023/05/14 10:13:36;;;;;;;;;;;27.10;38.10;;;;;;5063896;28;20112;-63
2023/05/14 10:16:05;;;;;;;5.80;2.58;;;27.10;38.50;;;;;;5060417;28;19962;-64
2023/05/14 10:18:39;;;;;;;4.57;2.58;;;27.20;38.80;;;;;;5068490;28;20124;-64
2023/05/14 10:21:06;;;;;;;6.32;2.75;;;27.20;38.20;;;;;;5070721;28;20040;-64
2023/05/14 10:23:33;;;;;;;6.63;2.72;;;27.20;38.10;;;;;;5074146;28;20417;-63
2023/05/14 10:26:00;;;;;;;6.50;2.85;;;27.30;38.30;;;;;;5072135;28;20023;-64
2023/05/14 10:28:26;;;;;;;7.43;3.38;;;27.40;38.70;;;;;;5068553;28;20025;-64
2023/05/14 10:30:53;;;;;;;7.28;3.38;;;27.40;39.00;;;;;;5059792;28;20055;-63
2023/05/14 10:33:19;;;;;;;6.78;2.90;;;27.50;39.30;;;;;;5071622;28;20193;-63
2023/05/14 10:35:57;;;;;;;5.50;3.10;;;27.60;39.60;;;;;;5073052;28;20039;-65
2023/05/14 10:38:32;;;;;;;6.13;3.25;;;27.70;39.50;;;;;;5067644;28;20060;-63
2023/05/14 10:41:00;;;;;;;7.75;3.30;;;27.70;39.00;;;;;;5062119;28;20032;-63
2023/05/14 10:43:29;;;;;;;6.10;2.95;;;27.80;39.20;;;;;;5066903;28;20040;-64
2023/05/14 10:45:56;;;;;;;5.13;2.70;;;27.90;39.40;;;;;;5066699;28;20068;-63
2023/05/14 10:48:23;;;;;;;5.32;2.85;;;27.80;39.30;;;;;;5061746;28;20115;-64
2023/05/14 10:50:52;;;;;;;6.65;3.20;;;27.80;39.50;;;;;;5071875;28;20087;-64
2023/05/14 10:53:19;;;;;;;6.55;3.42;;;27.70;39.60;;;;;;5063897;28;20037;-64
2023/05/14 10:55:44;;;;;;;5.82;2.92;;;27.60;39.50;;;;;;5059745;28;20053;-64
2023/05/14 10:58:11;;;;;;;6.60;3.10;;;27.30;39.60;;;;;;5061841;28;20068;-63
2023/05/14 11:00:37;;;;;;;6.38;3.00;;;26.90;39.60;;;;;;5056810;28;20047;-64
2023/05/14 11:03:05;;;;;;;6.28;3.10;;;26.60;39.10;;;;;;5070361;28;20039;-64
2023/05/14 11:05:32;;;;;;;6.80;3.15;;;26.40;39.40;;;;;;5068655;28;20457;-64
2023/05/14 11:08:00;;;;;;;7.15;3.17;;;26.20;39.60;;;;;;5063933;28;20032;-63
2023/05/14 11:10:28;;;;;;;6.22;3.15;;;26.00;39.30;;;;;;5057720;28;20040;-64
2023/05/14 11:12:56;;;;;;;5.20;2.72;;;25.80;39.00;;;;;;5055892;28;20043;-65
2023/05/14 11:15:24;;;;;;;5.75;3.03;;;25.60;38.90;;;;;;5072411;28;20104;-64
2023/05/14 11:17:51;;;;;;;6.60;2.97;;;25.50;38.60;;;;;;5072760;28;20041;-64
2023/05/14 11:20:17;;;;;;;7.45;3.05;;;25.30;38.20;;;;;;5072760;28;20028;-64
2023/05/14 11:22:44;;;;;;;6.55;3.10;;;25.10;37.90;;;;;;5072550;28;20417;-64
2023/05/14 11:25:13;;;;;;;6.30;3.05;;;25.00;37.90;;;;;;5054543;28;20025;-64
2023/05/14 11:27:40;;;;;;;6.32;3.25;;;24.80;37.90;;;;;;5072816;28;20123;-64
2023/05/14 11:30:17;;;;;;;9.50;3.33;;;24.70;38.30;;;;;;5056088;28;20043;-64
2023/05/14 11:32:45;;;;;;;6.45;2.83;;;24.60;38.40;;;;;;5073673;28;20104;-64
2023/05/14 11:35:11;;;;;;;6.18;3.13;;;24.50;39.10;;;;;;5057790;28;20040;-64
2023/05/14 11:37:37;;;;;;;7.43;3.63;;;24.30;38.40;;;;;;5073885;28;20052;-64
2023/05/14 11:40:08;;;;;;;6.43;3.10;;;24.20;38.40;;;;;;5070439;28;20060;-64
2023/05/14 11:42:35;;;;;;;;;;;24.10;38.70;;;;;;5071500;28;20098;-64
2023/05/14 11:45:01;;;;;;;5.38;2.90;;;24.10;39.10;;;;;;5065446;28;20399;-64
2023/05/14 11:47:29;;;;;;;6.10;3.20;;;24.00;39.50;;;;;;5054567;28;20103;-63
2023/05/14 11:49:55;;;;;;;5.95;3.08;;;23.90;39.70;;;;;;5052773;28;20017;-64
2023/05/14 11:52:21;;;;;;;6.40;3.35;;;23.90;40.10;;;;;;5068914;28;20094;-63
2023/05/14 11:54:48;;;;;;;6.30;3.38;;;23.80;40.50;;;;;;5072096;28;20028;-63
2023/05/14 11:57:20;;;;;;;8.85;3.80;;;23.80;40.70;;;;;;5072094;28;20076;-63
2023/05/14 11:59:56;;;;;;;7.70;3.85;;;23.80;41.20;;;;;;5076320;28;20056;-63
2023/05/14 12:02:22;;;;;;;8.38;3.72;;;23.80;41.60;;;;;;5065372;28;20029;-63
2023/05/14 12:04:52;;;;;;;7.25;3.83;;;23.80;41.90;;;;;;5069429;28;20103;-64
2023/05/14 12:07:17;;;;;;;7.13;3.30;;;23.80;42.40;;;;;;5062964;28;20028;-63
2023/05/14 12:09:49;;;;;;;7.00;3.30;;;23.90;42.40;;;;;;5062636;28;20036;-63
2023/05/14 12:12:20;;;;;;;7.47;3.45;;;23.90;42.00;;;;;;5065374;28;20106;-63
2023/05/14 12:14:47;;;;;;;6.68;3.30;;;23.90;41.50;;;;;;5079729;28;20051;-63
2023/05/14 12:17:15;;;;;;;5.35;2.90;;;24.00;41.10;;;;;;5060671;28;20043;-63
2023/05/14 12:19:42;;;;;;;7.93;3.45;;;24.00;41.10;;;;;;5064306;28;20024;-63
2023/05/14 12:22:13;;;;;;;7.45;2.85;;;24.00;40.90;;;;;;5069560;28;20048;-63
2023/05/14 12:24:39;;;;;;;;;;;24.10;41.00;;;;;;5068778;28;20028;-63
2023/05/14 12:27:08;;;;;;;5.75;2.70;;;24.10;41.00;;;;;;5077157;28;20008;-63
2023/05/14 12:29:39;;;;;;;6.32;3.28;;;24.10;40.60;;;;;;5063011;28;20362;-63
2023/05/14 12:32:09;;;;;;;6.18;3.03;;;24.10;39.80;;;;;;5070658;28;20048;-63
2023/05/14 12:34:36;;;;;;;6.32;3.03;;;24.10;39.60;;;;;;5061052;28;20402;-63
2023/05/14 12:37:02;;;;;;;5.63;2.78;;;24.20;39.20;;;;;;5062977;28;20036;-63
2023/05/14 12:39:31;;;;;;;6.10;2.95;;;24.20;38.90;;;;;;5067813;28;20115;-65